createdAt,value
2022-12-29T00:01:12.163Z,14.43
2022-12-29T00:03:42.465Z,12.95
2022-12-29T00:06:13.000Z,19.70
2022-12-29T00:08:43.136Z,18.20
2022-12-29T00:11:18.686Z,16.25
2022-12-29T00:14:07.954Z,13.02
2022-12-29T00:16:41.197Z,11.30
2022-12-29T00:19:32.219Z,15.95
2022-12-29T00:22:20.823Z,12.63
2022-12-29T00:25:03.058Z,14.73
2022-12-29T00:27:52.509Z,15.10
2022-12-29T00:30:42.695Z,15.95
2022-12-29T00:33:39.565Z,10.70
2022-12-29T00:36:16.111Z,12.02
2022-12-29T00:39:20.506Z,17.13
2022-12-29T00:42:09.021Z,13.60
2022-12-29T00:44:39.174Z,10.82
2022-12-29T00:47:09.257Z,12.00
2022-12-29T00:49:39.401Z,22.85
2022-12-29T00:52:12.482Z,16.20
2022-12-29T00:54:42.832Z,12.90
2022-12-29T00:57:13.790Z,10.35
2022-12-29T00:59:44.035Z,19.30
2022-12-29T01:02:14.391Z,12.32
2022-12-29T01:04:44.713Z,14.23
2022-12-29T01:07:14.865Z,14.35
2022-12-29T01:10:03.744Z,16.52
2022-12-29T01:12:46.106Z,15.30
2022-12-29T01:15:16.485Z,11.68
2022-12-29T01:17:47.077Z,12.20
2022-12-29T01:20:17.538Z,10.07
2022-12-29T01:22:48.572Z,16.75
2022-12-29T01:25:18.782Z,15.80
2022-12-29T01:27:48.956Z,13.35
2022-12-29T01:30:19.133Z,9.50
2022-12-29T01:32:49.306Z,11.63
2022-12-29T01:35:19.642Z,11.90
2022-12-29T01:37:49.761Z,15.18
2022-12-29T01:40:20.002Z,13.63
2022-12-29T01:42:50.247Z,14.57
2022-12-29T01:45:20.462Z,16.23
2022-12-29T01:47:58.718Z,13.25
2022-12-29T01:50:36.355Z,11.63
2022-12-29T01:53:10.604Z,11.80
2022-12-29T01:55:59.248Z,16.20
2022-12-29T01:58:33.691Z,15.65
2022-12-29T02:01:05.358Z,14.57
2022-12-29T02:03:37.527Z,15.05
2022-12-29T02:06:23.825Z,12.57
2022-12-29T02:08:56.401Z,12.57
2022-12-29T02:11:29.822Z,16.95
2022-12-29T02:14:03.597Z,13.60
2022-12-29T02:16:45.896Z,15.38
2022-12-29T02:19:15.990Z,9.52
2022-12-29T02:22:19.002Z,13.88
2022-12-29T02:25:22.006Z,14.43
2022-12-29T02:27:59.551Z,10.98
2022-12-29T02:31:11.457Z,14.45
2022-12-29T02:33:53.297Z,13.75
2022-12-29T02:36:41.593Z,16.73
2022-12-29T02:39:39.248Z,11.95
2022-12-29T02:42:23.403Z,17.95
2022-12-29T02:45:52.648Z,20.25
2022-12-29T02:48:46.708Z,11.48
2022-12-29T02:51:24.975Z,21.42
2022-12-29T02:54:14.924Z,16.85
2022-12-29T02:56:45.100Z,12.48
2022-12-29T02:59:15.595Z,8.25
2022-12-29T03:02:19.635Z,11.90
2022-12-29T03:05:02.447Z,15.25
2022-12-29T03:07:44.052Z,20.90
2022-12-29T03:10:33.068Z,10.25
2022-12-29T03:13:32.190Z,16.70
2022-12-29T03:16:13.707Z,13.80
2022-12-29T03:18:51.611Z,12.15
2022-12-29T03:22:02.012Z,12.45
2022-12-29T03:24:37.475Z,14.25
2022-12-29T03:27:12.691Z,12.93
2022-12-29T03:29:53.515Z,14.50
2022-12-29T03:32:30.121Z,10.52
2022-12-29T03:35:01.859Z,19.05
2022-12-29T03:37:38.964Z,9.35
2022-12-29T03:42:40.760Z,12.13
2022-12-29T03:45:12.266Z,13.00
2022-12-29T03:47:42.537Z,16.40
2022-12-29T03:50:15.844Z,10.77
2022-12-29T03:52:46.056Z,11.25
2022-12-29T03:55:16.285Z,15.40
2022-12-29T03:57:46.433Z,13.57
2022-12-29T04:00:16.919Z,13.80
2022-12-29T04:02:48.661Z,17.70
2022-12-29T04:05:19.085Z,12.68
2022-12-29T04:07:49.273Z,12.27
2022-12-29T04:10:19.445Z,16.67
2022-12-29T04:12:49.512Z,15.65
2022-12-29T04:15:19.730Z,14.50
2022-12-29T04:17:49.822Z,11.38
2022-12-29T04:20:38.701Z,13.05
2022-12-29T04:23:12.100Z,12.27
2022-12-29T04:25:42.394Z,11.32
2022-12-29T04:28:12.577Z,15.63
2022-12-29T04:30:44.488Z,16.70
2022-12-29T04:33:15.007Z,11.80
2022-12-29T04:35:45.740Z,15.10
2022-12-29T04:38:16.736Z,13.90
2022-12-29T04:40:48.738Z,14.07
2022-12-29T04:43:20.430Z,14.57
2022-12-29T04:45:50.604Z,12.68
2022-12-29T04:48:20.797Z,12.10
2022-12-29T04:50:51.227Z,12.00
2022-12-29T04:53:21.420Z,15.25
2022-12-29T04:55:53.094Z,13.18
2022-12-29T04:58:23.622Z,12.23
2022-12-29T05:00:53.819Z,12.25
2022-12-29T05:03:24.060Z,13.77
2022-12-29T05:05:56.150Z,12.18
2022-12-29T05:08:28.599Z,14.07
2022-12-29T05:10:58.919Z,14.85
2022-12-29T05:13:29.044Z,15.75
2022-12-29T05:15:59.232Z,13.93
2022-12-29T05:18:29.371Z,12.70
2022-12-29T05:20:59.684Z,13.65
2022-12-29T05:23:29.807Z,12.82
2022-12-29T05:25:59.940Z,16.48
2022-12-29T05:28:30.106Z,15.57
2022-12-29T05:31:00.402Z,10.82
2022-12-29T05:33:30.621Z,9.10
2022-12-29T05:36:08.590Z,14.85
2022-12-29T05:38:38.660Z,13.60
2022-12-29T05:41:08.942Z,15.35
2022-12-29T05:43:39.079Z,11.52
2022-12-29T05:46:09.219Z,11.18
2022-12-29T05:48:39.386Z,13.38
2022-12-29T05:51:09.540Z,13.43
2022-12-29T05:53:39.676Z,12.20
2022-12-29T05:56:09.888Z,12.57
2022-12-29T05:58:40.000Z,12.38
2022-12-29T06:01:10.667Z,12.75
2022-12-29T06:03:47.746Z,9.75
2022-12-29T06:06:18.508Z,12.88
2022-12-29T06:08:48.713Z,15.88
2022-12-29T06:11:18.923Z,13.48
2022-12-29T06:13:49.108Z,12.57
2022-12-29T06:16:19.325Z,13.23
2022-12-29T06:18:49.545Z,14.23
2022-12-29T06:21:19.757Z,13.77
2022-12-29T06:23:50.069Z,12.25
2022-12-29T06:26:20.331Z,15.50
2022-12-29T06:28:50.618Z,11.70
2022-12-29T06:31:20.873Z,16.17
2022-12-29T06:33:51.141Z,11.90
2022-12-29T06:36:21.344Z,12.45
2022-12-29T06:38:53.683Z,13.63
2022-12-29T06:41:28.449Z,16.27
2022-12-29T06:44:02.278Z,13.13
2022-12-29T06:46:32.628Z,18.10
2022-12-29T06:49:03.488Z,11.90
2022-12-29T06:51:33.583Z,11.32
2022-12-29T06:54:03.822Z,10.63
2022-12-29T06:56:34.126Z,11.18
2022-12-29T06:59:04.464Z,12.20
2022-12-29T07:01:35.655Z,15.70
2022-12-29T07:04:06.094Z,14.57
2022-12-29T07:06:36.340Z,14.52
2022-12-29T07:09:06.514Z,18.15
2022-12-29T07:11:37.246Z,15.93
2022-12-29T07:14:07.506Z,9.60
2022-12-29T07:16:38.399Z,13.10
2022-12-29T07:19:08.553Z,15.20
2022-12-29T07:21:38.757Z,13.70
2022-12-29T07:24:14.299Z,14.25
2022-12-29T07:26:44.573Z,16.35
2022-12-29T07:29:14.760Z,16.10
2022-12-29T07:31:45.062Z,13.90
2022-12-29T07:34:15.280Z,13.45
2022-12-29T07:36:45.531Z,14.13
2022-12-29T07:39:15.761Z,16.60
2022-12-29T07:41:45.983Z,17.90
2022-12-29T07:44:16.117Z,15.55
2022-12-29T07:46:56.513Z,18.85
2022-12-29T07:49:27.984Z,12.15
2022-12-29T07:51:58.235Z,15.85
2022-12-29T07:54:28.426Z,13.48
2022-12-29T07:57:01.352Z,20.20
2022-12-29T07:59:31.659Z,19.23
2022-12-29T08:02:02.362Z,18.60
2022-12-29T08:04:32.819Z,14.95
2022-12-29T08:07:03.154Z,19.08
2022-12-29T08:09:33.345Z,18.73
2022-12-29T08:12:03.632Z,13.35
2022-12-29T08:14:33.866Z,17.08
2022-12-29T08:17:03.979Z,16.88
2022-12-29T08:19:34.134Z,15.68
2022-12-29T08:22:05.048Z,16.65
2022-12-29T08:24:35.220Z,36.55
2022-12-29T08:27:13.395Z,25.38
2022-12-29T08:29:50.062Z,14.75
2022-12-29T08:32:20.261Z,19.00
2022-12-29T08:34:51.777Z,25.40
2022-12-29T08:37:26.283Z,22.67
2022-12-29T08:40:04.909Z,19.88
2022-12-29T08:42:35.233Z,17.05
2022-12-29T08:45:05.924Z,20.17
2022-12-29T08:47:36.133Z,16.23
2022-12-29T08:50:06.953Z,18.67
2022-12-29T08:52:37.139Z,15.52
2022-12-29T08:55:07.635Z,14.23
2022-12-29T08:57:37.923Z,15.27
2022-12-29T09:00:08.833Z,12.40
2022-12-29T09:02:39.303Z,13.25
2022-12-29T09:05:10.819Z,15.85
2022-12-29T09:07:41.285Z,14.93
2022-12-29T09:10:11.646Z,15.80
2022-12-29T09:12:41.829Z,17.13
2022-12-29T09:15:13.265Z,14.05
2022-12-29T09:17:46.673Z,19.65
2022-12-29T09:20:19.756Z,16.27
2022-12-29T09:22:50.474Z,21.77
2022-12-29T09:25:21.091Z,13.68
2022-12-29T09:27:54.848Z,18.52
2022-12-29T09:30:25.388Z,22.38
2022-12-29T09:32:55.659Z,18.25
2022-12-29T09:35:25.869Z,16.85
2022-12-29T09:37:56.170Z,21.35
2022-12-29T09:40:33.980Z,13.65
2022-12-29T09:43:22.250Z,14.23
2022-12-29T09:46:15.195Z,16.52
2022-12-29T09:48:51.409Z,16.02
2022-12-29T09:51:25.121Z,16.23
2022-12-29T09:54:00.794Z,15.13
2022-12-29T09:56:31.000Z,16.67
2022-12-29T09:59:17.030Z,16.27
2022-12-29T10:02:08.291Z,11.93
2022-12-29T10:04:38.774Z,10.85
2022-12-29T10:07:36.172Z,12.68
2022-12-29T10:10:21.571Z,16.13
2022-12-29T10:13:01.659Z,14.68
2022-12-29T10:16:01.050Z,12.52
2022-12-29T10:18:42.909Z,11.18
2022-12-29T10:21:22.083Z,12.10
2022-12-29T10:23:54.270Z,10.82
2022-12-29T10:26:29.826Z,11.75
2022-12-29T10:29:05.371Z,11.80
2022-12-29T10:31:41.987Z,10.00
2022-12-29T10:34:39.779Z,13.85
2022-12-29T10:37:26.486Z,12.55
2022-12-29T10:40:01.766Z,12.10
2022-12-29T10:42:46.359Z,10.02
2022-12-29T10:45:19.889Z,7.80
2022-12-29T10:48:13.352Z,9.43
2022-12-29T10:50:44.320Z,11.88
2022-12-29T10:53:23.941Z,9.63
2022-12-29T10:55:56.070Z,11.02
2022-12-29T10:58:27.265Z,11.45
2022-12-29T11:00:57.512Z,10.18
2022-12-29T11:03:49.809Z,10.30
2022-12-29T11:06:27.121Z,12.45
2022-12-29T11:09:11.213Z,9.30
2022-12-29T11:11:41.361Z,10.52
2022-12-29T11:14:19.539Z,10.18
2022-12-29T11:17:00.802Z,9.32
2022-12-29T11:19:40.586Z,7.03
2022-12-29T11:22:28.719Z,13.57
2022-12-29T11:25:11.307Z,11.95
2022-12-29T11:27:57.223Z,11.52
2022-12-29T11:30:31.541Z,13.15
2022-12-29T11:33:04.629Z,7.97
2022-12-29T11:35:44.737Z,10.57
2022-12-29T11:38:24.627Z,8.77
2022-12-29T11:40:54.901Z,12.90
2022-12-29T11:43:30.653Z,15.45
2022-12-29T11:46:04.709Z,13.45
2022-12-29T11:48:40.949Z,13.00
2022-12-29T11:51:12.842Z,10.07
2022-12-29T11:53:52.511Z,7.47
2022-12-29T11:56:40.345Z,9.10
2022-12-29T11:59:56.242Z,11.23
2022-12-29T12:02:43.688Z,8.75
2022-12-29T12:05:38.788Z,8.52
2022-12-29T12:08:21.205Z,10.48
2022-12-29T12:10:59.677Z,9.27
2022-12-29T12:13:47.167Z,10.38
2022-12-29T12:16:22.512Z,13.88
2022-12-29T12:19:05.382Z,6.78
2022-12-29T12:21:46.343Z,9.07
2022-12-29T12:24:28.607Z,7.25
2022-12-29T12:27:10.458Z,7.15
2022-12-29T12:30:04.317Z,9.00
2022-12-29T12:32:49.834Z,7.60
2022-12-29T12:35:23.034Z,8.02
2022-12-29T12:38:01.975Z,9.82
2022-12-29T12:40:50.461Z,10.65
2022-12-29T12:43:50.056Z,12.35
2022-12-29T12:46:28.784Z,9.25
2022-12-29T12:49:23.241Z,6.97
2022-12-29T12:52:05.171Z,9.43
2022-12-29T12:54:38.875Z,8.57
2022-12-29T12:57:27.384Z,11.65
2022-12-29T13:00:13.778Z,11.52
2022-12-29T13:03:05.649Z,13.82
2022-12-29T13:06:10.863Z,12.20
2022-12-29T13:09:18.445Z,12.95
2022-12-29T13:12:04.079Z,9.88
2022-12-29T13:15:06.508Z,13.43
2022-12-29T13:18:07.516Z,14.05
2022-12-29T13:21:04.844Z,12.23
2022-12-29T13:23:56.416Z,17.48
2022-12-29T13:26:35.108Z,11.07
2022-12-29T13:29:25.973Z,11.07
2022-12-29T13:32:02.437Z,8.88
2022-12-29T13:34:48.497Z,9.27
2022-12-29T13:37:21.731Z,11.57
2022-12-29T13:40:20.047Z,9.63
2022-12-29T13:42:51.113Z,7.35
2022-12-29T13:45:25.257Z,9.13
2022-12-29T13:48:25.605Z,11.40
2022-12-29T13:51:01.327Z,10.23
2022-12-29T13:53:44.169Z,8.55
2022-12-29T13:56:21.891Z,9.98
2022-12-29T13:58:58.176Z,15.80
2022-12-29T14:01:48.516Z,12.48
2022-12-29T14:04:28.544Z,7.93
2022-12-29T14:07:05.684Z,21.50
2022-12-29T14:09:41.695Z,12.88
2022-12-29T14:12:34.012Z,10.13
2022-12-29T14:15:23.455Z,13.90
2022-12-29T14:18:14.386Z,17.52
2022-12-29T14:21:10.090Z,16.52
2022-12-29T14:23:46.276Z,6.57
2022-12-29T14:26:35.609Z,14.30
2022-12-29T14:29:41.229Z,15.32
2022-12-29T14:32:26.356Z,14.40
2022-12-29T14:35:16.665Z,10.00
2022-12-29T14:37:47.542Z,12.73
2022-12-29T14:40:28.057Z,13.15
2022-12-29T14:42:58.873Z,13.05
2022-12-29T14:45:34.412Z,12.77
2022-12-29T14:48:28.077Z,12.80
2022-12-29T14:50:58.415Z,14.00
2022-12-29T14:53:52.037Z,16.35
2022-12-29T14:56:30.605Z,19.42
2022-12-29T14:59:04.240Z,20.02
2022-12-29T15:01:41.961Z,18.17
2022-12-29T15:04:21.972Z,24.33
2022-12-29T15:06:53.656Z,17.65
2022-12-29T15:09:38.451Z,18.00
2022-12-29T15:12:20.770Z,23.05
2022-12-29T15:14:55.449Z,21.85
2022-12-29T15:17:27.658Z,19.38
2022-12-29T15:20:00.491Z,22.73
2022-12-29T15:22:31.733Z,21.45
2022-12-29T15:25:01.935Z,23.17
2022-12-29T15:27:32.147Z,19.42
2022-12-29T15:30:08.550Z,15.07
2022-12-29T15:32:45.390Z,18.42
2022-12-29T15:35:37.249Z,23.63
2022-12-29T15:38:31.165Z,28.17
2022-12-29T15:41:25.072Z,21.85
2022-12-29T15:44:18.169Z,23.00
2022-12-29T15:46:48.476Z,18.00
2022-12-29T15:49:19.455Z,21.30
2022-12-29T15:51:50.779Z,20.25
2022-12-29T15:54:24.354Z,18.20
2022-12-29T15:56:54.520Z,20.67
2022-12-29T15:59:34.572Z,18.60
2022-12-29T16:02:12.472Z,24.63
2022-12-29T16:05:09.151Z,12.82
2022-12-29T16:07:41.760Z,13.55
2022-12-29T16:10:38.589Z,14.75
2022-12-29T16:13:32.255Z,16.15
2022-12-29T16:16:10.582Z,18.80
2022-12-29T16:18:40.889Z,15.40
2022-12-29T16:21:26.621Z,16.88
2022-12-29T16:24:02.516Z,19.10
2022-12-29T16:26:33.246Z,19.55
2022-12-29T16:29:07.759Z,15.80
2022-12-29T16:31:51.994Z,16.88
2022-12-29T16:34:29.793Z,27.00
2022-12-29T16:37:05.415Z,15.68
2022-12-29T16:39:40.806Z,16.75
2022-12-29T16:42:39.842Z,17.73
2022-12-29T16:45:32.470Z,17.33
2022-12-29T16:48:08.565Z,19.55
2022-12-29T16:50:41.416Z,20.15
2022-12-29T16:53:22.862Z,22.75
2022-12-29T16:55:54.484Z,18.83
2022-12-29T16:58:32.699Z,19.77
2022-12-29T17:01:07.104Z,39.00
2022-12-29T17:03:43.976Z,37.72
2022-12-29T17:08:49.196Z,23.90
2022-12-29T17:11:42.500Z,22.85
2022-12-29T17:14:35.337Z,30.17
2022-12-29T17:17:12.394Z,25.48
2022-12-29T17:19:47.338Z,45.90
2022-12-29T17:22:21.256Z,27.65
2022-12-29T17:24:53.149Z,27.38
2022-12-29T17:27:31.650Z,20.40
2022-12-29T17:30:14.687Z,20.13
2022-12-29T17:32:58.442Z,26.55
2022-12-29T17:35:28.887Z,18.92
2022-12-29T17:37:59.023Z,17.25
2022-12-29T17:40:33.251Z,18.90
2022-12-29T17:43:03.531Z,14.52
2022-12-29T17:45:33.853Z,13.65
2022-12-29T17:48:13.260Z,16.15
2022-12-29T17:50:44.742Z,19.20
2022-12-29T17:53:22.092Z,19.58
2022-12-29T17:55:52.988Z,17.73
2022-12-29T17:58:31.914Z,14.77
2022-12-29T18:01:03.226Z,15.45
2022-12-29T18:03:35.595Z,16.67
2022-12-29T18:06:08.637Z,12.68
2022-12-29T18:08:40.503Z,13.25
2022-12-29T18:11:25.915Z,15.95
2022-12-29T18:13:56.735Z,12.27
2022-12-29T18:16:27.213Z,15.75
2022-12-29T18:18:57.511Z,16.35
2022-12-29T18:21:27.736Z,15.30
2022-12-29T18:23:57.995Z,17.05
2022-12-29T18:26:31.828Z,16.48
2022-12-29T18:29:02.286Z,14.65
2022-12-29T18:31:34.459Z,13.38
2022-12-29T18:34:13.551Z,15.02
2022-12-29T18:36:43.915Z,14.32
2022-12-29T18:39:14.360Z,16.60
2022-12-29T18:41:45.154Z,17.75
2022-12-29T18:44:15.280Z,12.88
2022-12-29T18:46:45.476Z,10.25
2022-12-29T18:49:15.589Z,18.95
2022-12-29T18:51:45.749Z,16.90
2022-12-29T18:54:30.843Z,17.23
2022-12-29T18:57:01.100Z,16.80
2022-12-29T18:59:31.193Z,14.50
2022-12-29T19:02:01.414Z,14.43
2022-12-29T19:04:31.629Z,18.42
2022-12-29T19:07:01.914Z,15.82
2022-12-29T19:09:32.012Z,19.52
2022-12-29T19:12:02.155Z,13.52
2022-12-29T19:14:32.312Z,11.20
2022-12-29T19:17:02.468Z,15.02
2022-12-29T19:19:32.599Z,14.13
2022-12-29T19:22:02.771Z,11.60
2022-12-29T19:24:33.028Z,12.95
2022-12-29T19:27:03.257Z,15.77
2022-12-29T19:29:33.398Z,13.23
2022-12-29T19:32:03.672Z,9.80
2022-12-29T19:34:33.859Z,10.07
2022-12-29T19:37:04.842Z,14.10
2022-12-29T19:39:35.006Z,13.68
2022-12-29T19:42:05.841Z,14.57
2022-12-29T19:44:35.989Z,15.45
2022-12-29T19:47:06.289Z,11.73
2022-12-29T19:49:36.475Z,13.50
2022-12-29T19:52:06.696Z,13.73
2022-12-29T19:54:36.843Z,11.30
2022-12-29T19:57:06.976Z,9.63
2022-12-29T19:59:37.133Z,11.48
2022-12-29T20:02:18.103Z,11.45
2022-12-29T20:04:48.566Z,12.63
2022-12-29T20:07:19.616Z,13.18
2022-12-29T20:09:50.622Z,9.05
2022-12-29T20:12:27.304Z,11.43
2022-12-29T20:14:59.238Z,14.73
2022-12-29T20:18:02.439Z,10.75
2022-12-29T20:20:19.735Z,10.70
2022-12-29T20:22:49.803Z,12.70
2022-12-29T20:25:44.153Z,12.00
2022-12-29T20:28:10.447Z,10.73
2022-12-29T20:30:41.158Z,10.30
2022-12-29T20:33:11.383Z,9.90
2022-12-29T20:35:41.557Z,10.52
2022-12-29T20:38:11.769Z,13.82
2022-12-29T20:40:46.636Z,10.63
2022-12-29T20:43:17.247Z,12.35
2022-12-29T20:45:49.097Z,10.13
2022-12-29T20:48:19.345Z,9.45
2022-12-29T20:50:49.675Z,11.35
2022-12-29T20:53:19.907Z,10.90
2022-12-29T20:55:51.226Z,15.55
2022-12-29T20:58:24.249Z,9.80
2022-12-29T21:00:56.099Z,13.55
2022-12-29T21:03:26.352Z,16.50
2022-12-29T21:05:56.769Z,12.63
2022-12-29T21:08:30.175Z,11.93
2022-12-29T21:11:00.814Z,11.15
2022-12-29T21:13:31.199Z,13.10
2022-12-29T21:16:07.840Z,13.40
2022-12-29T21:18:38.057Z,14.10
2022-12-29T21:21:14.779Z,16.55
2022-12-29T21:23:45.283Z,14.15
2022-12-29T21:26:19.658Z,13.77
2022-12-29T21:28:51.015Z,15.38
2022-12-29T21:31:28.391Z,12.80
2022-12-29T21:33:58.684Z,18.90
2022-12-29T21:36:29.422Z,15.18
2022-12-29T21:38:59.654Z,25.13
2022-12-29T21:41:29.726Z,13.32
2022-12-29T21:44:18.338Z,14.38
2022-12-29T21:46:48.742Z,22.27
2022-12-29T21:49:18.977Z,13.50
2022-12-29T21:51:52.475Z,15.05
2022-12-29T21:54:44.439Z,16.85
2022-12-29T21:57:37.416Z,14.00
2022-12-29T22:00:27.843Z,14.35
2022-12-29T22:03:22.444Z,17.50
2022-12-29T22:06:12.074Z,17.02
2022-12-29T22:09:00.810Z,12.95
2022-12-29T22:11:49.411Z,20.13
2022-12-29T22:14:19.554Z,15.40
2022-12-29T22:16:49.746Z,15.52
2022-12-29T22:19:19.951Z,17.15
2022-12-29T22:21:50.192Z,19.02
2022-12-29T22:24:20.339Z,13.32
2022-12-29T22:26:50.431Z,13.95
2022-12-29T22:29:20.709Z,11.50
2022-12-29T22:31:50.817Z,17.58
2022-12-29T22:34:20.969Z,16.58
2022-12-29T22:36:51.575Z,11.48
2022-12-29T22:39:21.766Z,11.48
2022-12-29T22:41:51.920Z,12.95
2022-12-29T22:44:22.672Z,12.38
2022-12-29T22:46:52.854Z,8.88
2022-12-29T22:49:23.154Z,10.80
2022-12-29T22:51:53.340Z,9.40
2022-12-29T22:54:23.567Z,11.35
2022-12-29T22:56:53.882Z,9.73
2022-12-29T22:59:24.008Z,12.77
2022-12-29T23:01:54.329Z,16.65
2022-12-29T23:07:14.850Z,8.45
2022-12-29T23:09:45.075Z,12.07
2022-12-29T23:12:15.300Z,12.13
2022-12-29T23:14:45.398Z,10.43
2022-12-29T23:17:15.689Z,13.00
2022-12-29T23:19:45.830Z,10.93
2022-12-29T23:22:15.982Z,10.43
2022-12-29T23:24:46.149Z,14.50
2022-12-29T23:27:16.394Z,23.73
2022-12-29T23:29:46.614Z,17.25
2022-12-29T23:32:16.763Z,15.95
2022-12-29T23:34:46.883Z,9.20
2022-12-29T23:37:17.100Z,14.55
2022-12-29T23:39:47.251Z,19.13
2022-12-29T23:42:17.471Z,9.95
2022-12-29T23:44:47.684Z,9.65
2022-12-29T23:47:17.911Z,10.35
2022-12-29T23:49:48.000Z,10.65
2022-12-29T23:52:18.133Z,12.57
2022-12-29T23:54:49.704Z,9.52
2022-12-29T23:57:19.835Z,8.77
2022-12-29T23:59:49.925Z,8.73
